sensor_id;sensor_type;location;lat;lon;timestamp;P1;durP1;ratioP1;P2;durP2;ratioP2
6941;SDS011;3510;43.200;27.920;2023-05-07T00:02:06;1.55;;;1.42;;
6941;SDS011;3510;43.200;27.920;2023-05-07T00:04:34;4.88;;;2.35;;
6941;SDS011;3510;43.200;27.920;2023-05-07T00:07:04;1.70;;;1.60;;
6941;SDS011;3510;43.200;27.920;2023-05-07T00:09:31;1.45;;;1.20;;
6941;SDS011;3510;43.200;27.920;2023-05-07T00:11:57;1.73;;;1.63;;
6941;SDS011;3510;43.200;27.920;2023-05-07T00:14:24;1.30;;;1.30;;
6941;SDS011;3510;43.200;27.920;2023-05-07T00:16:51;2.60;;;1.85;;
6941;SDS011;3510;43.200;27.920;2023-05-07T00:19:18;5.68;;;1.48;;
6941;SDS011;3510;43.200;27.920;2023-05-07T00:21:46;3.03;;;1.60;;
6941;SDS011;3510;43.200;27.920;2023-05-07T00:24:13;1.60;;;1.50;;
6941;SDS011;3510;43.200;27.920;2023-05-07T00:26:40;3.00;;;1.73;;
6941;SDS011;3510;43.200;27.920;2023-05-07T00:29:07;1.48;;;1.13;;
6941;SDS011;3510;43.200;27.920;2023-05-07T03:23:30;4.20;;;1.50;;
6941;SDS011;3510;43.200;27.920;2023-05-07T03:26:01;2.10;;;1.90;;
6941;SDS011;3510;43.200;27.920;2023-05-07T03:28:28;2.42;;;1.65;;
6941;SDS011;3510;43.200;27.920;2023-05-07T03:30:55;1.60;;;1.38;;
6941;SDS011;3510;43.200;27.920;2023-05-07T03:33:25;2.75;;;1.88;;
6941;SDS011;3510;43.200;27.920;2023-05-07T03:35:53;2.25;;;1.85;;
6941;SDS011;3510;43.200;27.920;2023-05-07T03:38:19;1.80;;;1.70;;
6941;SDS011;3510;43.200;27.920;2023-05-07T03:40:47;7.20;;;2.00;;
6941;SDS011;3510;43.200;27.920;2023-05-07T03:43:14;1.67;;;1.58;;
6941;SDS011;3510;43.200;27.920;2023-05-07T03:45:41;3.15;;;2.08;;
6941;SDS011;3510;43.200;27.920;2023-05-07T03:48:22;1.77;;;1.60;;
6941;SDS011;3510;43.200;27.920;2023-05-07T03:50:49;1.77;;;1.63;;
6941;SDS011;3510;43.200;27.920;2023-05-07T03:53:17;4.50;;;1.95;;
6941;SDS011;3510;43.200;27.920;2023-05-07T03:55:43;2.00;;;1.88;;
6941;SDS011;3510;43.200;27.920;2023-05-07T03:58:11;3.47;;;1.90;;
6941;SDS011;3510;43.200;27.920;2023-05-07T04:00:38;3.75;;;1.90;;
6941;SDS011;3510;43.200;27.920;2023-05-07T04:03:06;3.38;;;2.17;;
6941;SDS011;3510;43.200;27.920;2023-05-07T04:05:32;5.82;;;1.90;;
6941;SDS011;3510;43.200;27.920;2023-05-07T04:08:01;4.18;;;1.73;;
6941;SDS011;3510;43.200;27.920;2023-05-07T04:10:29;7.07;;;2.28;;
6941;SDS011;3510;43.200;27.920;2023-05-07T04:12:56;5.80;;;2.00;;
6941;SDS011;3510;43.200;27.920;2023-05-07T04:15:24;3.60;;;2.05;;
6941;SDS011;3510;43.200;27.920;2023-05-07T04:17:51;2.20;;;2.00;;
6941;SDS011;3510;43.200;27.920;2023-05-07T04:20:18;3.78;;;1.75;;
6941;SDS011;3510;43.200;27.920;2023-05-07T04:22:45;2.13;;;1.92;;
6941;SDS011;3510;43.200;27.920;2023-05-07T04:25:12;4.30;;;2.35;;
6941;SDS011;3510;43.200;27.920;2023-05-07T04:27:38;2.42;;;1.58;;
6941;SDS011;3510;43.200;27.920;2023-05-07T04:30:20;4.05;;;1.83;;
6941;SDS011;3510;43.200;27.920;2023-05-07T04:32:49;1.83;;;1.73;;
6941;SDS011;3510;43.200;27.920;2023-05-07T04:35:15;8.48;;;1.70;;
6941;SDS011;3510;43.200;27.920;2023-05-07T04:37:42;9.20;;;2.10;;
6941;SDS011;3510;43.200;27.920;2023-05-07T04:40:09;2.67;;;1.90;;
6941;SDS011;3510;43.200;27.920;2023-05-07T04:42:36;1.98;;;1.80;;
6941;SDS011;3510;43.200;27.920;2023-05-07T04:45:04;4.35;;;2.45;;
6941;SDS011;3510;43.200;27.920;2023-05-07T04:47:33;1.88;;;1.77;;
6941;SDS011;3510;43.200;27.920;2023-05-07T04:50:02;2.03;;;1.88;;
6941;SDS011;3510;43.200;27.920;2023-05-07T04:52:28;5.95;;;2.13;;
6941;SDS011;3510;43.200;27.920;2023-05-07T04:54:56;2.67;;;2.00;;
6941;SDS011;3510;43.200;27.920;2023-05-07T04:57:25;5.03;;;2.25;;
6941;SDS011;3510;43.200;27.920;2023-05-07T05:00:06;3.33;;;1.75;;
6941;SDS011;3510;43.200;27.920;2023-05-07T05:02:34;1.60;;;1.50;;
6941;SDS011;3510;43.200;27.920;2023-05-07T05:05:02;2.28;;;1.95;;
6941;SDS011;3510;43.200;27.920;2023-05-07T05:07:30;1.83;;;1.73;;
6941;SDS011;3510;43.200;27.920;2023-05-07T05:09:57;3.85;;;2.38;;
6941;SDS011;3510;43.200;27.920;2023-05-07T05:12:24;2.95;;;1.80;;
6941;SDS011;3510;43.200;27.920;2023-05-07T05:14:51;5.15;;;2.00;;
6941;SDS011;3510;43.200;27.920;2023-05-07T05:17:17;3.40;;;1.83;;
6941;SDS011;3510;43.200;27.920;2023-05-07T05:19:44;4.82;;;1.52;;
6941;SDS011;3510;43.200;27.920;2023-05-07T05:22:12;2.22;;;2.00;;
6941;SDS011;3510;43.200;27.920;2023-05-07T05:24:39;2.08;;;1.90;;
6941;SDS011;3510;43.200;27.920;2023-05-07T05:27:05;2.03;;;1.92;;
6941;SDS011;3510;43.200;27.920;2023-05-07T05:29:32;6.05;;;2.00;;
6941;SDS011;3510;43.200;27.920;2023-05-07T05:32:13;2.75;;;1.70;;
6941;SDS011;3510;43.200;27.920;2023-05-07T05:34:40;1.95;;;1.73;;
6941;SDS011;3510;43.200;27.920;2023-05-07T05:37:10;2.30;;;1.75;;
6941;SDS011;3510;43.200;27.920;2023-05-07T05:42:14;1.85;;;1.75;;
6941;SDS011;3510;43.200;27.920;2023-05-07T05:44:40;3.55;;;1.50;;
6941;SDS011;3510;43.200;27.920;2023-05-07T05:47:07;4.40;;;2.22;;
6941;SDS011;3510;43.200;27.920;2023-05-07T05:49:35;2.28;;;1.80;;
6941;SDS011;3510;43.200;27.920;2023-05-07T05:52:02;4.43;;;1.92;;
6941;SDS011;3510;43.200;27.920;2023-05-07T05:54:29;4.07;;;1.98;;
6941;SDS011;3510;43.200;27.920;2023-05-07T05:56:56;5.30;;;2.13;;
6941;SDS011;3510;43.200;27.920;2023-05-07T05:59:25;2.40;;;2.20;;
6941;SDS011;3510;43.200;27.920;2023-05-07T06:01:52;3.38;;;1.80;;
6941;SDS011;3510;43.200;27.920;2023-05-07T06:04:25;3.15;;;2.10;;
6941;SDS011;3510;43.200;27.920;2023-05-07T06:06:51;1.85;;;1.75;;
6941;SDS011;3510;43.200;27.920;2023-05-07T06:09:18;6.93;;;1.98;;
6941;SDS011;3510;43.200;27.920;2023-05-07T06:11:45;2.90;;;1.55;;
6941;SDS011;3510;43.200;27.920;2023-05-07T06:14:14;2.80;;;1.80;;
6941;SDS011;3510;43.200;27.920;2023-05-07T06:16:43;4.38;;;1.83;;
6941;SDS011;3510;43.200;27.920;2023-05-07T06:19:12;4.07;;;2.13;;
6941;SDS011;3510;43.200;27.920;2023-05-07T06:21:43;4.53;;;2.20;;
6941;SDS011;3510;43.200;27.920;2023-05-07T06:24:10;2.97;;;1.50;;
6941;SDS011;3510;43.200;27.920;2023-05-07T06:26:47;2.15;;;1.85;;
6941;SDS011;3510;43.200;27.920;2023-05-07T06:29:14;3.78;;;2.15;;
6941;SDS011;3510;43.200;27.920;2023-05-07T06:31:41;1.70;;;1.58;;
6941;SDS011;3510;43.200;27.920;2023-05-07T06:34:09;6.65;;;2.00;;
6941;SDS011;3510;43.200;27.920;2023-05-07T06:36:40;2.22;;;1.83;;
6941;SDS011;3510;43.200;27.920;2023-05-07T06:39:08;1.83;;;1.67;;
6941;SDS011;3510;43.200;27.920;2023-05-07T06:42:20;3.63;;;2.75;;
6941;SDS011;3510;43.200;27.920;2023-05-07T06:49:57;5.07;;;1.90;;
6941;SDS011;3510;43.200;27.920;2023-05-07T06:52:24;1.55;;;1.42;;
6941;SDS011;3510;43.200;27.920;2023-05-07T06:54:51;2.60;;;2.03;;
6941;SDS011;3510;43.200;27.920;2023-05-07T06:57:19;3.85;;;2.75;;
6941;SDS011;3510;43.200;27.920;2023-05-07T06:59:46;5.78;;;2.78;;
6941;SDS011;3510;43.200;27.920;2023-05-07T07:02:13;5.40;;;1.85;;
6941;SDS011;3510;43.200;27.920;2023-05-07T07:07:15;4.78;;;2.35;;
6941;SDS011;3510;43.200;27.920;2023-05-07T07:09:41;3.97;;;2.10;;
6941;SDS011;3510;43.200;27.920;2023-05-07T07:14:48;4.63;;;2.10;;
6941;SDS011;3510;43.200;27.920;2023-05-07T07:17:15;4.45;;;2.28;;
6941;SDS011;3510;43.200;27.920;2023-05-07T07:19:42;12.55;;;3.78;;
6941;SDS011;3510;43.200;27.920;2023-05-07T07:22:09;2.92;;;1.65;;
6941;SDS011;3510;43.200;27.920;2023-05-07T07:24:36;3.60;;;2.20;;
6941;SDS011;3510;43.200;27.920;2023-05-07T07:27:03;4.60;;;2.67;;
6941;SDS011;3510;43.200;27.920;2023-05-07T07:29:42;3.38;;;2.20;;
6941;SDS011;3510;43.200;27.920;2023-05-07T07:32:11;8.35;;;2.40;;
6941;SDS011;3510;43.200;27.920;2023-05-07T07:34:39;9.85;;;2.47;;
6941;SDS011;3510;43.200;27.920;2023-05-07T07:37:05;8.77;;;2.30;;
6941;SDS011;3510;43.200;27.920;2023-05-07T07:39:32;3.90;;;1.98;;
6941;SDS011;3510;43.200;27.920;2023-05-07T07:42:00;1.80;;;1.70;;
6941;SDS011;3510;43.200;27.920;2023-05-07T07:44:27;4.43;;;2.28;;
6941;SDS011;3510;43.200;27.920;2023-05-07T07:46:54;6.07;;;2.53;;
6941;SDS011;3510;43.200;27.920;2023-05-07T07:49:22;2.55;;;2.35;;
6941;SDS011;3510;43.200;27.920;2023-05-07T07:51:48;5.10;;;2.10;;
6941;SDS011;3510;43.200;27.920;2023-05-07T07:54:16;6.50;;;2.35;;
6941;SDS011;3510;43.200;27.920;2023-05-07T07:56:43;7.10;;;2.17;;
6941;SDS011;3510;43.200;27.920;2023-05-07T07:59:10;2.65;;;2.42;;
6941;SDS011;3510;43.200;27.920;2023-05-07T08:01:38;5.97;;;2.28;;
6941;SDS011;3510;43.200;27.920;2023-05-07T08:04:05;8.00;;;2.08;;
6941;SDS011;3510;43.200;27.920;2023-05-07T08:06:34;3.28;;;2.28;;
6941;SDS011;3510;43.200;27.920;2023-05-07T08:09:00;6.63;;;2.53;;
6941;SDS011;3510;43.200;27.920;2023-05-07T08:11:30;5.28;;;2.35;;
6941;SDS011;3510;43.200;27.920;2023-05-07T08:13:58;2.42;;;1.92;;
6941;SDS011;3510;43.200;27.920;2023-05-07T08:16:26;4.55;;;2.20;;
6941;SDS011;3510;43.200;27.920;2023-05-07T08:18:53;2.55;;;2.35;;
6941;SDS011;3510;43.200;27.920;2023-05-07T08:21:20;3.75;;;2.00;;
6941;SDS011;3510;43.200;27.920;2023-05-07T08:23:49;2.85;;;2.10;;
6941;SDS011;3510;43.200;27.920;2023-05-07T08:26:18;3.42;;;2.60;;
6941;SDS011;3510;43.200;27.920;2023-05-07T08:28:45;4.63;;;1.75;;
6941;SDS011;3510;43.200;27.920;2023-05-07T08:31:26;5.78;;;2.78;;
6941;SDS011;3510;43.200;27.920;2023-05-07T08:33:53;3.63;;;2.00;;
6941;SDS011;3510;43.200;27.920;2023-05-07T08:36:24;3.20;;;2.10;;
6941;SDS011;3510;43.200;27.920;2023-05-07T08:38:52;8.80;;;2.63;;
6941;SDS011;3510;43.200;27.920;2023-05-07T08:41:27;6.80;;;2.33;;
6941;SDS011;3510;43.200;27.920;2023-05-07T08:43:54;6.50;;;2.75;;
6941;SDS011;3510;43.200;27.920;2023-05-07T08:46:24;4.45;;;2.50;;
6941;SDS011;3510;43.200;27.920;2023-05-07T08:48:52;5.43;;;2.20;;
6941;SDS011;3510;43.200;27.920;2023-05-07T08:51:19;6.78;;;2.20;;
6941;SDS011;3510;43.200;27.920;2023-05-07T08:53:49;2.25;;;1.90;;
6941;SDS011;3510;43.200;27.920;2023-05-07T08:56:18;4.50;;;2.65;;
6941;SDS011;3510;43.200;27.920;2023-05-07T08:58:46;4.20;;;2.60;;
6941;SDS011;3510;43.200;27.920;2023-05-07T09:01:16;4.60;;;2.35;;
6941;SDS011;3510;43.200;27.920;2023-05-07T09:03:44;4.95;;;2.90;;
6941;SDS011;3510;43.200;27.920;2023-05-07T09:06:12;4.82;;;2.28;;
6941;SDS011;3510;43.200;27.920;2023-05-07T09:08:43;5.15;;;2.45;;
6941;SDS011;3510;43.200;27.920;2023-05-07T09:11:21;3.20;;;2.08;;
6941;SDS011;3510;43.200;27.920;2023-05-07T09:13:52;4.38;;;2.55;;
6941;SDS011;3510;43.200;27.920;2023-05-07T09:16:21;8.40;;;2.83;;
6941;SDS011;3510;43.200;27.920;2023-05-07T09:18:50;4.72;;;1.98;;
6941;SDS011;3510;43.200;27.920;2023-05-07T09:21:20;3.92;;;2.30;;
6941;SDS011;3510;43.200;27.920;2023-05-07T09:23:48;4.32;;;2.25;;
6941;SDS011;3510;43.200;27.920;2023-05-07T09:26:22;7.90;;;2.13;;
6941;SDS011;3510;43.200;27.920;2023-05-07T09:28:49;5.15;;;2.35;;
6941;SDS011;3510;43.200;27.920;2023-05-07T09:31:16;3.92;;;2.08;;
6941;SDS011;3510;43.200;27.920;2023-05-07T09:33:44;5.43;;;2.50;;
6941;SDS011;3510;43.200;27.920;2023-05-07T09:36:11;7.60;;;2.55;;
6941;SDS011;3510;43.200;27.920;2023-05-07T09:38:38;2.90;;;2.47;;
6941;SDS011;3510;43.200;27.920;2023-05-07T09:41:07;6.90;;;2.50;;
6941;SDS011;3510;43.200;27.920;2023-05-07T09:43:36;4.13;;;2.47;;
6941;SDS011;3510;43.200;27.920;2023-05-07T09:46:06;5.32;;;2.20;;
6941;SDS011;3510;43.200;27.920;2023-05-07T09:48:36;3.40;;;2.75;;
6941;SDS011;3510;43.200;27.920;2023-05-07T09:51:11;8.32;;;3.00;;
6941;SDS011;3510;43.200;27.920;2023-05-07T09:53:45;6.30;;;2.25;;
6941;SDS011;3510;43.200;27.920;2023-05-07T09:56:12;5.57;;;2.60;;
6941;SDS011;3510;43.200;27.920;2023-05-07T09:58:41;2.55;;;2.35;;
6941;SDS011;3510;43.200;27.920;2023-05-07T10:01:10;3.55;;;2.35;;
6941;SDS011;3510;43.200;27.920;2023-05-07T10:03:37;3.17;;;2.53;;
6941;SDS011;3510;43.200;27.920;2023-05-07T10:06:08;3.05;;;2.40;;
6941;SDS011;3510;43.200;27.920;2023-05-07T10:08:36;4.60;;;2.70;;
6941;SDS011;3510;43.200;27.920;2023-05-07T10:11:06;11.48;;;3.00;;
6941;SDS011;3510;43.200;27.920;2023-05-07T10:13:33;2.88;;;2.65;;
6941;SDS011;3510;43.200;27.920;2023-05-07T10:16:04;5.38;;;3.03;;
6941;SDS011;3510;43.200;27.920;2023-05-07T10:18:32;6.55;;;2.90;;
6941;SDS011;3510;43.200;27.920;2023-05-07T10:21:01;5.15;;;2.92;;
6941;SDS011;3510;43.200;27.920;2023-05-07T10:23:33;7.28;;;3.38;;
6941;SDS011;3510;43.200;27.920;2023-05-07T10:26:03;8.30;;;3.30;;
6941;SDS011;3510;43.200;27.920;2023-05-07T10:28:34;7.32;;;2.97;;
6941;SDS011;3510;43.200;27.920;2023-05-07T10:31:10;6.10;;;3.22;;
6941;SDS011;3510;43.200;27.920;2023-05-07T10:33:53;6.30;;;3.33;;
6941;SDS011;3510;43.200;27.920;2023-05-07T10:36:21;9.93;;;2.95;;
6941;SDS011;3510;43.200;27.920;2023-05-07T10:38:50;9.30;;;3.28;;
6941;SDS011;3510;43.200;27.920;2023-05-07T10:41:17;8.02;;;2.85;;
6941;SDS011;3510;43.200;27.920;2023-05-07T10:43:46;7.50;;;3.58;;
6941;SDS011;3510;43.200;27.920;2023-05-07T10:46:16;10.07;;;3.50;;
6941;SDS011;3510;43.200;27.920;2023-05-07T10:51:35;5.63;;;2.47;;
6941;SDS011;3510;43.200;27.920;2023-05-07T10:56:46;5.72;;;2.80;;
6941;SDS011;3510;43.200;27.920;2023-05-07T11:02:08;8.63;;;3.00;;
6941;SDS011;3510;43.200;27.920;2023-05-07T11:04:50;7.05;;;3.60;;
6941;SDS011;3510;43.200;27.920;2023-05-07T11:07:53;8.73;;;2.95;;
6941;SDS011;3510;43.200;27.920;2023-05-07T11:10:20;8.85;;;3.28;;
6941;SDS011;3510;43.200;27.920;2023-05-07T11:12:49;7.15;;;3.72;;
6941;SDS011;3510;43.200;27.920;2023-05-07T11:18:04;12.25;;;3.65;;
6941;SDS011;3510;43.200;27.920;2023-05-07T11:23:26;14.02;;;3.70;;
6941;SDS011;3510;43.200;27.920;2023-05-07T11:26:24;7.70;;;3.42;;
6941;SDS011;3510;43.200;27.920;2023-05-07T11:28:52;7.80;;;3.80;;
6941;SDS011;3510;43.200;27.920;2023-05-07T11:31:20;8.65;;;3.40;;
6941;SDS011;3510;43.200;27.920;2023-05-07T11:33:51;4.38;;;3.10;;
6941;SDS011;3510;43.200;27.920;2023-05-07T11:36:18;5.65;;;3.95;;
6941;SDS011;3510;43.200;27.920;2023-05-07T11:38:46;4.20;;;2.92;;
6941;SDS011;3510;43.200;27.920;2023-05-07T11:41:15;5.25;;;3.97;;
6941;SDS011;3510;43.200;27.920;2023-05-07T11:43:57;7.35;;;3.45;;
6941;SDS011;3510;43.200;27.920;2023-05-07T11:46:42;6.30;;;3.03;;
6941;SDS011;3510;43.200;27.920;2023-05-07T11:49:11;14.50;;;4.00;;
6941;SDS011;3510;43.200;27.920;2023-05-07T11:51:38;16.92;;;3.88;;
6941;SDS011;3510;43.200;27.920;2023-05-07T11:54:07;4.75;;;3.25;;
6941;SDS011;3510;43.200;27.920;2023-05-07T11:56:36;8.65;;;4.35;;
6941;SDS011;3510;43.200;27.920;2023-05-07T11:59:04;7.18;;;3.53;;
6941;SDS011;3510;43.200;27.920;2023-05-07T12:01:32;7.55;;;3.42;;
6941;SDS011;3510;43.200;27.920;2023-05-07T12:04:02;7.90;;;2.80;;
6941;SDS011;3510;43.200;27.920;2023-05-07T12:06:35;8.30;;;3.15;;
6941;SDS011;3510;43.200;27.920;2023-05-07T12:09:02;4.93;;;3.53;;
6941;SDS011;3510;43.200;27.920;2023-05-07T12:11:32;7.82;;;3.30;;
6941;SDS011;3510;43.200;27.920;2023-05-07T12:14:00;7.10;;;3.20;;
6941;SDS011;3510;43.200;27.920;2023-05-07T12:16:27;5.25;;;2.90;;
6941;SDS011;3510;43.200;27.920;2023-05-07T12:18:55;7.28;;;2.92;;
6941;SDS011;3510;43.200;27.920;2023-05-07T12:21:24;9.57;;;3.28;;
6941;SDS011;3510;43.200;27.920;2023-05-07T12:23:53;7.10;;;4.30;;
6941;SDS011;3510;43.200;27.920;2023-05-07T12:26:20;26.58;;;4.85;;
6941;SDS011;3510;43.200;27.920;2023-05-07T12:28:49;7.82;;;3.65;;
6941;SDS011;3510;43.200;27.920;2023-05-07T12:31:16;7.32;;;3.25;;
6941;SDS011;3510;43.200;27.920;2023-05-07T12:33:44;7.05;;;2.97;;
6941;SDS011;3510;43.200;27.920;2023-05-07T12:36:12;7.07;;;3.83;;
6941;SDS011;3510;43.200;27.920;2023-05-07T12:38:39;11.35;;;3.53;;
6941;SDS011;3510;43.200;27.920;2023-05-07T12:41:10;8.60;;;2.70;;
6941;SDS011;3510;43.200;27.920;2023-05-07T12:43:56;5.55;;;3.40;;
6941;SDS011;3510;43.200;27.920;2023-05-07T12:46:38;4.38;;;3.58;;
6941;SDS011;3510;43.200;27.920;2023-05-07T12:49:05;10.50;;;3.63;;
6941;SDS011;3510;43.200;27.920;2023-05-07T12:51:34;5.85;;;2.90;;
6941;SDS011;3510;43.200;27.920;2023-05-07T12:54:01;6.93;;;3.97;;
6941;SDS011;3510;43.200;27.920;2023-05-07T12:56:31;5.97;;;2.90;;
6941;SDS011;3510;43.200;27.920;2023-05-07T12:59:02;10.15;;;3.13;;
6941;SDS011;3510;43.200;27.920;2023-05-07T13:01:30;7.90;;;3.50;;
6941;SDS011;3510;43.200;27.920;2023-05-07T13:04:00;14.93;;;3.70;;
6941;SDS011;3510;43.200;27.920;2023-05-07T13:06:29;5.38;;;3.13;;
6941;SDS011;3510;43.200;27.920;2023-05-07T13:08:57;5.30;;;3.17;;
6941;SDS011;3510;43.200;27.920;2023-05-07T13:11:23;6.25;;;2.75;;
6941;SDS011;3510;43.200;27.920;2023-05-07T13:16:35;6.90;;;3.80;;
6941;SDS011;3510;43.200;27.920;2023-05-07T13:19:15;5.63;;;2.65;;
6941;SDS011;3510;43.200;27.920;2023-05-07T13:21:42;6.10;;;3.03;;
6941;SDS011;3510;43.200;27.920;2023-05-07T13:24:09;11.48;;;3.80;;
6941;SDS011;3510;43.200;27.920;2023-05-07T13:26:36;9.68;;;4.22;;
6941;SDS011;3510;43.200;27.920;2023-05-07T13:29:02;7.60;;;2.90;;
6941;SDS011;3510;43.200;27.920;2023-05-07T13:31:31;17.13;;;4.00;;
6941;SDS011;3510;43.200;27.920;2023-05-07T13:33:58;5.38;;;3.22;;
6941;SDS011;3510;43.200;27.920;2023-05-07T13:36:25;9.80;;;3.70;;
6941;SDS011;3510;43.200;27.920;2023-05-07T13:38:53;5.68;;;3.33;;
6941;SDS011;3510;43.200;27.920;2023-05-07T13:41:20;8.10;;;3.90;;
6941;SDS011;3510;43.200;27.920;2023-05-07T13:43:47;11.80;;;5.57;;
6941;SDS011;3510;43.200;27.920;2023-05-07T13:46:15;7.18;;;3.80;;
6941;SDS011;3510;43.200;27.920;2023-05-07T13:48:43;12.25;;;3.45;;
6941;SDS011;3510;43.200;27.920;2023-05-07T13:51:10;3.17;;;2.88;;
6941;SDS011;3510;43.200;27.920;2023-05-07T13:53:37;6.40;;;3.15;;
6941;SDS011;3510;43.200;27.920;2023-05-07T13:56:04;6.25;;;3.10;;
6941;SDS011;3510;43.200;27.920;2023-05-07T13:58:31;7.18;;;3.15;;
6941;SDS011;3510;43.200;27.920;2023-05-07T14:00:58;7.80;;;3.15;;
6941;SDS011;3510;43.200;27.920;2023-05-07T14:03:26;5.40;;;3.78;;
6941;SDS011;3510;43.200;27.920;2023-05-07T14:05:54;6.70;;;3.13;;
6941;SDS011;3510;43.200;27.920;2023-05-07T14:08:23;13.25;;;3.03;;
6941;SDS011;3510;43.200;27.920;2023-05-07T14:10:50;4.45;;;3.05;;
6941;SDS011;3510;43.200;27.920;2023-05-07T14:13:20;6.68;;;2.85;;
6941;SDS011;3510;43.200;27.920;2023-05-07T14:15:47;7.18;;;2.75;;
6941;SDS011;3510;43.200;27.920;2023-05-07T14:18:14;9.68;;;3.28;;
6941;SDS011;3510;43.200;27.920;2023-05-07T14:20:41;6.90;;;3.50;;
6941;SDS011;3510;43.200;27.920;2023-05-07T14:23:13;7.45;;;2.97;;
6941;SDS011;3510;43.200;27.920;2023-05-07T14:25:42;5.35;;;3.28;;
6941;SDS011;3510;43.200;27.920;2023-05-07T14:28:23;8.48;;;3.50;;
6941;SDS011;3510;43.200;27.920;2023-05-07T14:30:50;9.32;;;3.65;;
6941;SDS011;3510;43.200;27.920;2023-05-07T14:33:17;7.82;;;3.67;;
6941;SDS011;3510;43.200;27.920;2023-05-07T14:35:43;6.18;;;2.65;;
6941;SDS011;3510;43.200;27.920;2023-05-07T14:38:15;5.30;;;2.80;;
6941;SDS011;3510;43.200;27.920;2023-05-07T14:40:42;8.25;;;3.30;;
6941;SDS011;3510;43.200;27.920;2023-05-07T14:43:09;6.97;;;3.50;;
6941;SDS011;3510;43.200;27.920;2023-05-07T14:45:36;6.32;;;2.90;;
6941;SDS011;3510;43.200;27.920;2023-05-07T14:48:03;12.75;;;3.38;;
6941;SDS011;3510;43.200;27.920;2023-05-07T14:50:31;3.58;;;3.08;;
6941;SDS011;3510;43.200;27.920;2023-05-07T14:52:57;6.07;;;3.25;;
6941;SDS011;3510;43.200;27.920;2023-05-07T14:55:26;7.55;;;3.03;;
6941;SDS011;3510;43.200;27.920;2023-05-07T14:57:53;5.45;;;3.13;;
6941;SDS011;3510;43.200;27.920;2023-05-07T15:00:20;9.38;;;2.70;;
6941;SDS011;3510;43.200;27.920;2023-05-07T15:02:46;6.88;;;2.88;;
6941;SDS011;3510;43.200;27.920;2023-05-07T15:05:14;9.70;;;3.25;;
6941;SDS011;3510;43.200;27.920;2023-05-07T15:07:41;7.00;;;3.08;;
6941;SDS011;3510;43.200;27.920;2023-05-07T15:10:09;6.57;;;3.20;;
6941;SDS011;3510;43.200;27.920;2023-05-07T15:12:37;3.58;;;2.80;;
6941;SDS011;3510;43.200;27.920;2023-05-07T15:15:08;8.05;;;3.58;;
6941;SDS011;3510;43.200;27.920;2023-05-07T15:17:35;5.32;;;3.25;;
6941;SDS011;3510;43.200;27.920;2023-05-07T15:20:02;3.85;;;2.90;;
6941;SDS011;3510;43.200;27.920;2023-05-07T15:22:30;6.25;;;3.00;;
6941;SDS011;3510;43.200;27.920;2023-05-07T15:25:08;5.28;;;2.92;;
6941;SDS011;3510;43.200;27.920;2023-05-07T15:27:35;5.07;;;3.15;;
6941;SDS011;3510;43.200;27.920;2023-05-07T15:30:04;5.80;;;3.60;;
6941;SDS011;3510;43.200;27.920;2023-05-07T15:32:31;9.45;;;3.20;;
6941;SDS011;3510;43.200;27.920;2023-05-07T15:34:58;6.72;;;3.00;;
6941;SDS011;3510;43.200;27.920;2023-05-07T15:37:25;8.77;;;3.55;;
6941;SDS011;3510;43.200;27.920;2023-05-07T15:39:52;5.30;;;2.88;;
6941;SDS011;3510;43.200;27.920;2023-05-07T15:42:19;6.30;;;3.58;;
6941;SDS011;3510;43.200;27.920;2023-05-07T15:44:47;8.13;;;3.40;;
6941;SDS011;3510;43.200;27.920;2023-05-07T15:47:16;7.78;;;3.45;;
6941;SDS011;3510;43.200;27.920;2023-05-07T15:49:43;6.03;;;3.28;;
6941;SDS011;3510;43.200;27.920;2023-05-07T15:52:27;5.07;;;3.47;;
6941;SDS011;3510;43.200;27.920;2023-05-07T15:54:55;7.65;;;3.15;;
6941;SDS011;3510;43.200;27.920;2023-05-07T15:57:22;9.32;;;3.45;;
6941;SDS011;3510;43.200;27.920;2023-05-07T15:59:53;10.57;;;3.70;;
6941;SDS011;3510;43.200;27.920;2023-05-07T16:02:23;6.38;;;2.85;;
6941;SDS011;3510;43.200;27.920;2023-05-07T16:04:50;4.10;;;3.17;;
6941;SDS011;3510;43.200;27.920;2023-05-07T16:10:28;10.95;;;3.67;;
6941;SDS011;3510;43.200;27.920;2023-05-07T16:13:09;10.30;;;3.72;;
6941;SDS011;3510;43.200;27.920;2023-05-07T16:15:54;5.45;;;4.10;;
6941;SDS011;3510;43.200;27.920;2023-05-07T16:18:28;9.52;;;4.00;;
6941;SDS011;3510;43.200;27.920;2023-05-07T16:21:04;6.95;;;3.40;;
6941;SDS011;3510;43.200;27.920;2023-05-07T16:23:53;7.85;;;3.08;;
6941;SDS011;3510;43.200;27.920;2023-05-07T16:26:27;5.80;;;3.85;;
6941;SDS011;3510;43.200;27.920;2023-05-07T16:29:07;5.80;;;3.60;;
6941;SDS011;3510;43.200;27.920;2023-05-07T17:32:12;6.57;;;3.77;;
6941;SDS011;3510;43.200;27.920;2023-05-07T17:34:53;7.70;;;4.18;;
6941;SDS011;3510;43.200;27.920;2023-05-07T17:37:33;5.78;;;4.07;;
6941;SDS011;3510;43.200;27.920;2023-05-07T17:40:14;4.95;;;3.75;;
6941;SDS011;3510;43.200;27.920;2023-05-07T17:42:41;8.55;;;4.30;;
6941;SDS011;3510;43.200;27.920;2023-05-07T17:45:10;7.05;;;4.03;;
6941;SDS011;3510;43.200;27.920;2023-05-07T17:47:38;12.83;;;4.20;;
